sensor_id;sensor_type;location;lat;lon;timestamp;pressure;altitude;pressure_sealevel;temperature;humidity
72465;BME280;60471;52.150;4.508;2022-11-03T00:01:46;100986.50;;;13.17;65.71
72465;BME280;60471;52.150;4.508;2022-11-03T00:04:15;100982.84;;;13.20;65.78
72465;BME280;60471;52.150;4.508;2022-11-03T00:06:45;100985.72;;;13.15;65.93
72465;BME280;60471;52.150;4.508;2022-11-03T00:09:14;100971.38;;;13.19;65.98
72465;BME280;60471;52.150;4.508;2022-11-03T00:11:44;100965.03;;;13.22;65.83
72465;BME280;60471;52.150;4.508;2022-11-03T00:14:12;100968.13;;;13.14;66.20
72465;BME280;60471;52.150;4.508;2022-11-03T00:16:42;100959.84;;;13.20;66.26
72465;BME280;60471;52.150;4.508;2022-11-03T00:19:10;100956.59;;;13.15;66.51
72465;BME280;60471;52.150;4.508;2022-11-03T00:21:36;101002.47;;;13.16;66.22
72465;BME280;60471;52.150;4.508;2022-11-03T00:24:03;100959.31;;;13.14;66.67
72465;BME280;60471;52.150;4.508;2022-11-03T00:26:32;100942.63;;;13.12;66.88
72465;BME280;60471;52.150;4.508;2022-11-03T00:29:21;100955.38;;;13.05;67.14
72465;BME280;60471;52.150;4.508;2022-11-03T00:31:47;100963.72;;;13.13;66.96
72465;BME280;60471;52.150;4.508;2022-11-03T00:34:13;100959.22;;;13.15;66.84
72465;BME280;60471;52.150;4.508;2022-11-03T00:36:41;100942.53;;;13.13;67.12
72465;BME280;60471;52.150;4.508;2022-11-03T00:39:09;100964.53;;;13.15;67.12
72465;BME280;60471;52.150;4.508;2022-11-03T00:41:36;100938.03;;;13.15;67.16
72465;BME280;60471;52.150;4.508;2022-11-03T00:44:02;100950.44;;;13.15;67.15
72465;BME280;60471;52.150;4.508;2022-11-03T00:46:29;100948.63;;;13.15;67.29
72465;BME280;60471;52.150;4.508;2022-11-03T00:48:55;100952.66;;;13.22;67.25
72465;BME280;60471;52.150;4.508;2022-11-03T00:51:24;100946.59;;;13.20;67.31
72465;BME280;60471;52.150;4.508;2022-11-03T00:53:57;100942.06;;;13.22;67.25
72465;BME280;60471;52.150;4.508;2022-11-03T00:56:30;100934.34;;;13.18;67.68
72465;BME280;60471;52.150;4.508;2022-11-03T00:58:58;100928.28;;;13.16;67.73
72465;BME280;60471;52.150;4.508;2022-11-03T01:01:33;100929.84;;;13.20;67.81
72465;BME280;60471;52.150;4.508;2022-11-03T01:04:01;100927.81;;;13.25;67.66
72465;BME280;60471;52.150;4.508;2022-11-03T01:06:48;100910.34;;;13.21;67.96
72465;BME280;60471;52.150;4.508;2022-11-03T01:11:50;100912.16;;;13.20;68.05
72465;BME280;60471;52.150;4.508;2022-11-03T01:14:22;100934.69;;;13.12;68.41
72465;BME280;60471;52.150;4.508;2022-11-03T01:16:50;100901.69;;;13.17;68.44
72465;BME280;60471;52.150;4.508;2022-11-03T01:19:16;100890.69;;;13.09;68.96
72465;BME280;60471;52.150;4.508;2022-11-03T01:21:43;100913.41;;;13.13;68.95
72465;BME280;60471;52.150;4.508;2022-11-03T01:24:09;100904.69;;;13.11;68.98
72465;BME280;60471;52.150;4.508;2022-11-03T01:26:35;100903.06;;;13.09;69.26
72465;BME280;60471;52.150;4.508;2022-11-03T01:29:01;100891.63;;;13.08;69.37
72465;BME280;60471;52.150;4.508;2022-11-03T01:31:28;100879.75;;;13.15;69.25
72465;BME280;60471;52.150;4.508;2022-11-03T01:33:55;100895.13;;;13.09;69.53
72465;BME280;60471;52.150;4.508;2022-11-03T01:36:23;100878.38;;;13.08;69.72
72465;BME280;60471;52.150;4.508;2022-11-03T01:38:50;100891.44;;;13.11;69.56
72465;BME280;60471;52.150;4.508;2022-11-03T01:41:19;100865.56;;;13.00;70.01
72465;BME280;60471;52.150;4.508;2022-11-03T01:49:24;100885.81;;;13.01;70.35
72465;BME280;60471;52.150;4.508;2022-11-03T01:52:03;100885.91;;;13.00;70.34
72465;BME280;60471;52.150;4.508;2022-11-03T01:54:35;100870.09;;;12.98;70.47
72465;BME280;60471;52.150;4.508;2022-11-03T01:57:12;100878.66;;;13.03;70.33
72465;BME280;60471;52.150;4.508;2022-11-03T01:59:46;100860.97;;;13.04;70.50
72465;BME280;60471;52.150;4.508;2022-11-03T02:02:13;100840.97;;;12.98;70.48
72465;BME280;60471;52.150;4.508;2022-11-03T02:04:40;100869.16;;;12.99;70.55
72465;BME280;60471;52.150;4.508;2022-11-03T02:07:18;100851.47;;;13.00;70.70
72465;BME280;60471;52.150;4.508;2022-11-03T02:09:49;100852.59;;;12.96;70.72
72465;BME280;60471;52.150;4.508;2022-11-03T02:12:18;100850.28;;;12.90;70.92
72465;BME280;60471;52.150;4.508;2022-11-03T02:14:57;100823.72;;;12.91;71.10
72465;BME280;60471;52.150;4.508;2022-11-03T02:17:29;100832.84;;;13.01;70.85
72465;BME280;60471;52.150;4.508;2022-11-03T02:20:04;100850.63;;;12.99;70.79
72465;BME280;60471;52.150;4.508;2022-11-03T02:22:40;100822.19;;;13.03;70.64
72465;BME280;60471;52.150;4.508;2022-11-03T02:25:35;100825.06;;;12.98;70.79
72465;BME280;60471;52.150;4.508;2022-11-03T02:28:21;100821.38;;;13.01;70.90
72465;BME280;60471;52.150;4.508;2022-11-03T02:31:01;100801.75;;;13.05;70.68
72465;BME280;60471;52.150;4.508;2022-11-03T02:36:40;100799.75;;;13.09;70.73
72465;BME280;60471;52.150;4.508;2022-11-03T02:39:33;100804.50;;;13.03;70.93
72465;BME280;60471;52.150;4.508;2022-11-03T02:42:10;100799.25;;;13.02;70.98
72465;BME280;60471;52.150;4.508;2022-11-03T02:44:40;100788.41;;;13.06;70.85
72465;BME280;60471;52.150;4.508;2022-11-03T02:47:09;100777.31;;;13.00;71.49
72465;BME280;60471;52.150;4.508;2022-11-03T02:49:46;100776.66;;;13.11;70.73
72465;BME280;60471;52.150;4.508;2022-11-03T02:52:37;100760.66;;;12.98;71.69
72465;BME280;60471;52.150;4.508;2022-11-03T03:01:12;100760.00;;;12.94;72.22
72465;BME280;60471;52.150;4.508;2022-11-03T03:03:47;100733.22;;;12.99;71.91
72465;BME280;60471;52.150;4.508;2022-11-03T03:06:23;100725.28;;;12.99;72.14
72465;BME280;60471;52.150;4.508;2022-11-03T03:08:59;100731.03;;;12.91;72.42
72465;BME280;60471;52.150;4.508;2022-11-03T03:11:29;100728.53;;;13.04;71.90
72465;BME280;60471;52.150;4.508;2022-11-03T03:19:23;100758.19;;;12.95;72.21
72465;BME280;60471;52.150;4.508;2022-11-03T03:21:57;100715.09;;;13.07;71.93
72465;BME280;60471;52.150;4.508;2022-11-03T03:24:52;100721.22;;;13.07;72.03
72465;BME280;60471;52.150;4.508;2022-11-03T03:27:23;100728.44;;;13.05;71.95
72465;BME280;60471;52.150;4.508;2022-11-03T03:29:57;100729.72;;;12.98;72.33
72465;BME280;60471;52.150;4.508;2022-11-03T03:32:30;100725.97;;;13.02;72.03
72465;BME280;60471;52.150;4.508;2022-11-03T03:35:00;100758.41;;;13.06;71.91
72465;BME280;60471;52.150;4.508;2022-11-03T03:37:30;100715.09;;;13.07;71.86
72465;BME280;60471;52.150;4.508;2022-11-03T03:40:08;100716.88;;;13.06;72.20
72465;BME280;60471;52.150;4.508;2022-11-03T03:42:38;100714.88;;;13.10;72.12
72465;BME280;60471;52.150;4.508;2022-11-03T03:45:09;100731.06;;;13.05;72.37
72465;BME280;60471;52.150;4.508;2022-11-03T03:47:37;100710.63;;;13.07;72.31
72465;BME280;60471;52.150;4.508;2022-11-03T03:50:03;100711.97;;;13.15;72.02
72465;BME280;60471;52.150;4.508;2022-11-03T03:52:32;100707.63;;;13.14;72.08
72465;BME280;60471;52.150;4.508;2022-11-03T03:55:00;100696.34;;;13.10;72.38
72465;BME280;60471;52.150;4.508;2022-11-03T03:57:29;100701.53;;;13.12;72.27
72465;BME280;60471;52.150;4.508;2022-11-03T03:59:57;100686.06;;;13.20;72.24
72465;BME280;60471;52.150;4.508;2022-11-03T04:02:23;100708.03;;;13.22;71.86
72465;BME280;60471;52.150;4.508;2022-11-03T04:04:49;100691.81;;;13.12;72.43
72465;BME280;60471;52.150;4.508;2022-11-03T04:07:15;100695.78;;;13.05;72.72
72465;BME280;60471;52.150;4.508;2022-11-03T04:10:00;100689.94;;;13.14;72.48
72465;BME280;60471;52.150;4.508;2022-11-03T04:12:26;100684.53;;;13.16;72.35
72465;BME280;60471;52.150;4.508;2022-11-03T04:15:12;100695.47;;;13.25;72.11
72465;BME280;60471;52.150;4.508;2022-11-03T04:17:57;100690.78;;;13.15;72.17
72465;BME280;60471;52.150;4.508;2022-11-03T04:20:42;100695.31;;;13.13;72.46
72465;BME280;60471;52.150;4.508;2022-11-03T04:23:27;100689.44;;;13.07;72.63
72465;BME280;60471;52.150;4.508;2022-11-03T04:25:55;100673.59;;;13.22;72.20
72465;BME280;60471;52.150;4.508;2022-11-03T04:28:23;100680.56;;;13.09;72.60
72465;BME280;60471;52.150;4.508;2022-11-03T04:30:50;100668.38;;;13.20;72.48
72465;BME280;60471;52.150;4.508;2022-11-03T04:33:20;100668.75;;;13.14;72.57
72465;BME280;60471;52.150;4.508;2022-11-03T04:35:46;100682.34;;;13.08;72.76
72465;BME280;60471;52.150;4.508;2022-11-03T04:40:44;100668.59;;;13.01;73.16
72465;BME280;60471;52.150;4.508;2022-11-03T04:43:16;100659.91;;;12.99;73.41
72465;BME280;60471;52.150;4.508;2022-11-03T04:45:46;100645.91;;;12.97;73.60
72465;BME280;60471;52.150;4.508;2022-11-03T04:48:23;100654.63;;;12.99;73.65
72465;BME280;60471;52.150;4.508;2022-11-03T04:50:54;100637.50;;;13.05;73.49
72465;BME280;60471;52.150;4.508;2022-11-03T04:53:22;100648.31;;;13.16;73.17
72465;BME280;60471;52.150;4.508;2022-11-03T04:55:53;100634.19;;;13.01;73.93
72465;BME280;60471;52.150;4.508;2022-11-03T04:58:28;100652.16;;;12.96;74.04
72465;BME280;60471;52.150;4.508;2022-11-03T05:00:59;100633.91;;;13.06;73.94
72465;BME280;60471;52.150;4.508;2022-11-03T05:03:35;100627.47;;;13.10;73.90
72465;BME280;60471;52.150;4.508;2022-11-03T05:06:15;100609.69;;;13.12;73.64
72465;BME280;60471;52.150;4.508;2022-11-03T05:08:44;100632.56;;;13.13;73.74
72465;BME280;60471;52.150;4.508;2022-11-03T05:14:06;100612.91;;;13.17;73.91
72465;BME280;60471;52.150;4.508;2022-11-03T05:16:41;100603.25;;;13.16;74.11
72465;BME280;60471;52.150;4.508;2022-11-03T05:19:27;100599.66;;;13.17;74.25
72465;BME280;60471;52.150;4.508;2022-11-03T05:22:12;100603.00;;;13.21;74.05
72465;BME280;60471;52.150;4.508;2022-11-03T05:24:43;100590.13;;;13.15;74.42
72465;BME280;60471;52.150;4.508;2022-11-03T05:27:15;100576.88;;;13.15;74.55
72465;BME280;60471;52.150;4.508;2022-11-03T05:29:46;100591.22;;;13.11;74.82
72465;BME280;60471;52.150;4.508;2022-11-03T05:32:24;100577.03;;;13.12;74.81
72465;BME280;60471;52.150;4.508;2022-11-03T05:34:54;100562.78;;;13.14;74.59
72465;BME280;60471;52.150;4.508;2022-11-03T05:37:32;100582.06;;;13.30;74.25
72465;BME280;60471;52.150;4.508;2022-11-03T05:40:22;100576.50;;;13.21;74.56
72465;BME280;60471;52.150;4.508;2022-11-03T05:42:58;100574.69;;;13.21;74.51
72465;BME280;60471;52.150;4.508;2022-11-03T05:45:31;100572.78;;;13.23;74.43
72465;BME280;60471;52.150;4.508;2022-11-03T05:48:01;100552.72;;;13.33;74.38
72465;BME280;60471;52.150;4.508;2022-11-03T05:50:33;100552.25;;;13.41;73.73
72465;BME280;60471;52.150;4.508;2022-11-03T05:55:37;100548.78;;;13.26;74.42
72465;BME280;60471;52.150;4.508;2022-11-03T05:58:32;100550.38;;;13.29;74.49
72465;BME280;60471;52.150;4.508;2022-11-03T06:01:09;100556.91;;;13.23;74.80
72465;BME280;60471;52.150;4.508;2022-11-03T06:03:41;100545.56;;;13.21;74.99
72465;BME280;60471;52.150;4.508;2022-11-03T06:06:23;100545.81;;;13.17;75.30
72465;BME280;60471;52.150;4.508;2022-11-03T06:08:55;100541.78;;;13.25;75.03
72465;BME280;60471;52.150;4.508;2022-11-03T06:11:35;100540.94;;;13.25;74.88
72465;BME280;60471;52.150;4.508;2022-11-03T06:14:18;100534.16;;;13.33;74.75
72465;BME280;60471;52.150;4.508;2022-11-03T06:16:48;100542.06;;;13.21;75.32
72465;BME280;60471;52.150;4.508;2022-11-03T06:19:21;100536.56;;;13.24;75.08
72465;BME280;60471;52.150;4.508;2022-11-03T06:21:54;100539.19;;;13.10;75.64
72465;BME280;60471;52.150;4.508;2022-11-03T06:24:28;100532.84;;;13.12;75.48
72465;BME280;60471;52.150;4.508;2022-11-03T06:26:56;100540.81;;;12.98;76.11
72465;BME280;60471;52.150;4.508;2022-11-03T06:29:24;100539.22;;;12.95;76.41
72465;BME280;60471;52.150;4.508;2022-11-03T06:31:53;100529.75;;;12.91;76.72
72465;BME280;60471;52.150;4.508;2022-11-03T06:34:40;100524.47;;;12.91;76.56
72465;BME280;60471;52.150;4.508;2022-11-03T06:37:16;100527.31;;;12.88;76.54
72465;BME280;60471;52.150;4.508;2022-11-03T06:39:46;100523.53;;;12.92;76.55
72465;BME280;60471;52.150;4.508;2022-11-03T06:42:14;100519.56;;;12.85;76.86
72465;BME280;60471;52.150;4.508;2022-11-03T06:44:43;100522.97;;;12.87;76.82
72465;BME280;60471;52.150;4.508;2022-11-03T06:47:18;100512.28;;;12.89;76.60
72465;BME280;60471;52.150;4.508;2022-11-03T06:49:49;100528.91;;;12.91;76.44
72465;BME280;60471;52.150;4.508;2022-11-03T06:52:33;100519.47;;;12.87;76.57
72465;BME280;60471;52.150;4.508;2022-11-03T06:57:34;100514.06;;;12.88;76.76
72465;BME280;60471;52.150;4.508;2022-11-03T07:00:20;100503.78;;;12.84;76.85
72465;BME280;60471;52.150;4.508;2022-11-03T07:05:30;100492.69;;;12.91;76.90
72465;BME280;60471;52.150;4.508;2022-11-03T07:08:00;100493.94;;;12.86;76.82
72465;BME280;60471;52.150;4.508;2022-11-03T07:10:31;100494.88;;;12.85;76.99
72465;BME280;60471;52.150;4.508;2022-11-03T07:13:10;100492.34;;;12.83;77.08
72465;BME280;60471;52.150;4.508;2022-11-03T07:15:41;100493.94;;;12.86;77.06
72465;BME280;60471;52.150;4.508;2022-11-03T07:18:38;100489.13;;;12.92;76.99
72465;BME280;60471;52.150;4.508;2022-11-03T07:21:37;100493.06;;;12.99;76.81
72465;BME280;60471;52.150;4.508;2022-11-03T07:24:17;100489.56;;;12.99;76.59
72465;BME280;60471;52.150;4.508;2022-11-03T07:30:04;100478.59;;;13.05;76.39
72465;BME280;60471;52.150;4.508;2022-11-03T07:32:40;100489.06;;;13.06;76.16
72465;BME280;60471;52.150;4.508;2022-11-03T07:37:43;100495.38;;;13.18;75.91
72465;BME280;60471;52.150;4.508;2022-11-03T07:40:17;100483.88;;;13.19;75.90
72465;BME280;60471;52.150;4.508;2022-11-03T07:42:47;100477.41;;;13.23;75.97
72465;BME280;60471;52.150;4.508;2022-11-03T07:45:34;100476.06;;;13.30;75.63
72465;BME280;60471;52.150;4.508;2022-11-03T07:48:26;100493.69;;;13.31;75.42
72465;BME280;60471;52.150;4.508;2022-11-03T07:51:26;100505.63;;;13.24;75.81
72465;BME280;60471;52.150;4.508;2022-11-03T07:56:47;100470.38;;;13.37;75.35
72465;BME280;60471;52.150;4.508;2022-11-03T07:59:19;100456.50;;;13.46;75.28
72465;BME280;60471;52.150;4.508;2022-11-03T08:01:47;100455.47;;;13.48;75.13
72465;BME280;60471;52.150;4.508;2022-11-03T08:04:18;100452.63;;;13.51;75.28
72465;BME280;60471;52.150;4.508;2022-11-03T08:06:45;100451.88;;;13.49;75.13
72465;BME280;60471;52.150;4.508;2022-11-03T08:09:11;100457.03;;;13.38;75.69
72465;BME280;60471;52.150;4.508;2022-11-03T08:11:38;100439.22;;;13.40;75.86
72465;BME280;60471;52.150;4.508;2022-11-03T08:14:04;100431.66;;;13.34;76.11
72465;BME280;60471;52.150;4.508;2022-11-03T08:16:30;100418.34;;;13.36;76.08
72465;BME280;60471;52.150;4.508;2022-11-03T08:18:56;100417.28;;;13.38;76.04
72465;BME280;60471;52.150;4.508;2022-11-03T08:21:22;100420.16;;;13.35;76.34
72465;BME280;60471;52.150;4.508;2022-11-03T08:23:49;100419.09;;;13.38;76.14
72465;BME280;60471;52.150;4.508;2022-11-03T08:26:16;100413.03;;;13.36;76.68
72465;BME280;60471;52.150;4.508;2022-11-03T08:28:42;100404.75;;;13.27;76.76
72465;BME280;60471;52.150;4.508;2022-11-03T08:31:09;100393.28;;;13.27;76.97
72465;BME280;60471;52.150;4.508;2022-11-03T08:33:35;100379.94;;;13.28;77.18
72465;BME280;60471;52.150;4.508;2022-11-03T08:36:02;100378.25;;;13.27;77.08
72465;BME280;60471;52.150;4.508;2022-11-03T08:38:29;100371.78;;;13.31;77.12
72465;BME280;60471;52.150;4.508;2022-11-03T08:40:56;100369.78;;;13.35;77.20
72465;BME280;60471;52.150;4.508;2022-11-03T08:43:27;100363.84;;;13.44;76.91
72465;BME280;60471;52.150;4.508;2022-11-03T08:45:53;100352.97;;;13.49;76.72
72465;BME280;60471;52.150;4.508;2022-11-03T08:48:24;100353.06;;;13.60;76.21
72465;BME280;60471;52.150;4.508;2022-11-03T08:50:55;100346.19;;;13.70;75.67
72465;BME280;60471;52.150;4.508;2022-11-03T08:53:25;100344.63;;;13.68;76.23
72465;BME280;60471;52.150;4.508;2022-11-03T08:55:52;100356.47;;;13.62;76.20
72465;BME280;60471;52.150;4.508;2022-11-03T08:58:19;100359.75;;;13.66;76.17
72465;BME280;60471;52.150;4.508;2022-11-03T09:00:46;100338.25;;;13.70;76.14
72465;BME280;60471;52.150;4.508;2022-11-03T09:03:15;100323.19;;;13.71;75.84
72465;BME280;60471;52.150;4.508;2022-11-03T09:05:42;100328.69;;;13.80;75.58
72465;BME280;60471;52.150;4.508;2022-11-03T09:08:08;100322.84;;;13.75;75.58
72465;BME280;60471;52.150;4.508;2022-11-03T09:10:34;100343.22;;;13.87;75.13
72465;BME280;60471;52.150;4.508;2022-11-03T09:13:00;100311.41;;;14.00;74.76
72465;BME280;60471;52.150;4.508;2022-11-03T09:15:27;100311.16;;;14.03;74.43
72465;BME280;60471;52.150;4.508;2022-11-03T09:17:54;100305.94;;;14.14;74.02
72465;BME280;60471;52.150;4.508;2022-11-03T09:20:20;100308.59;;;14.14;74.12
72465;BME280;60471;52.150;4.508;2022-11-03T09:22:46;100300.53;;;14.16;73.87
72465;BME280;60471;52.150;4.508;2022-11-03T09:25:12;100302.88;;;14.08;74.38
72465;BME280;60471;52.150;4.508;2022-11-03T09:27:38;100298.22;;;14.11;74.13
72465;BME280;60471;52.150;4.508;2022-11-03T09:30:05;100296.72;;;14.07;74.03
72465;BME280;60471;52.150;4.508;2022-11-03T09:32:32;100288.72;;;14.20;73.84
72465;BME280;60471;52.150;4.508;2022-11-03T09:34:59;100286.66;;;14.12;74.05
72465;BME280;60471;52.150;4.508;2022-11-03T09:37:25;100276.53;;;14.17;73.74
72465;BME280;60471;52.150;4.508;2022-11-03T09:39:51;100269.19;;;14.21;73.47
72465;BME280;60471;52.150;4.508;2022-11-03T09:42:17;100266.53;;;14.34;72.83
72465;BME280;60471;52.150;4.508;2022-11-03T09:44:44;100265.25;;;14.27;72.81
72465;BME280;60471;52.150;4.508;2022-11-03T09:47:19;100262.19;;;14.33;72.86
72465;BME280;60471;52.150;4.508;2022-11-03T09:49:49;100255.91;;;14.34;72.67
72465;BME280;60471;52.150;4.508;2022-11-03T09:52:20;100251.06;;;14.52;71.93
72465;BME280;60471;52.150;4.508;2022-11-03T09:54:48;100252.94;;;14.62;71.44
72465;BME280;60471;52.150;4.508;2022-11-03T09:57:17;100247.97;;;14.58;71.17
72465;BME280;60471;52.150;4.508;2022-11-03T09:59:46;100241.53;;;14.49;71.34
72465;BME280;60471;52.150;4.508;2022-11-03T10:02:25;100256.41;;;14.39;71.68
72465;BME280;60471;52.150;4.508;2022-11-03T10:04:58;100244.06;;;14.50;71.73
72465;BME280;60471;52.150;4.508;2022-11-03T10:07:27;100234.88;;;14.67;71.04
72465;BME280;60471;52.150;4.508;2022-11-03T10:09:57;100234.28;;;14.75;70.52
72465;BME280;60471;52.150;4.508;2022-11-03T10:12:27;100224.81;;;14.60;70.91
72465;BME280;60471;52.150;4.508;2022-11-03T10:14:58;100244.91;;;14.51;70.93
72465;BME280;60471;52.150;4.508;2022-11-03T10:17:29;100212.94;;;14.53;71.09
72465;BME280;60471;52.150;4.508;2022-11-03T10:19:57;100204.50;;;14.47;71.16
72465;BME280;60471;52.150;4.508;2022-11-03T10:22:23;100213.81;;;14.40;70.40
72465;BME280;60471;52.150;4.508;2022-11-03T10:25:26;100190.53;;;14.57;69.76
72465;BME280;60471;52.150;4.508;2022-11-03T10:30:50;100188.69;;;14.81;69.07
72465;BME280;60471;52.150;4.508;2022-11-03T10:33:34;100190.19;;;14.61;68.92
72465;BME280;60471;52.150;4.508;2022-11-03T10:38:40;100181.16;;;14.75;69.01
72465;BME280;60471;52.150;4.508;2022-11-03T10:41:11;100176.69;;;14.75;68.86
72465;BME280;60471;52.150;4.508;2022-11-03T10:43:39;100177.22;;;14.81;68.52
72465;BME280;60471;52.150;4.508;2022-11-03T10:46:16;100166.91;;;14.76;68.43
72465;BME280;60471;52.150;4.508;2022-11-03T10:51:35;100163.44;;;14.87;67.67
72465;BME280;60471;52.150;4.508;2022-11-03T10:54:04;100145.84;;;14.97;67.61
72465;BME280;60471;52.150;4.508;2022-11-03T10:56:34;100139.94;;;15.27;66.61
72465;BME280;60471;52.150;4.508;2022-11-03T10:59:01;100139.59;;;15.43;66.54
72465;BME280;60471;52.150;4.508;2022-11-03T11:01:27;100130.53;;;15.12;66.71
72465;BME280;60471;52.150;4.508;2022-11-03T11:03:54;100121.47;;;15.36;65.83
72465;BME280;60471;52.150;4.508;2022-11-03T11:06:24;100139.59;;;15.43;65.31
72465;BME280;60471;52.150;4.508;2022-11-03T11:08:53;100134.16;;;16.21;63.45
72465;BME280;60471;52.150;4.508;2022-11-03T11:11:24;100156.75;;;17.21;59.58
72465;BME280;60471;52.150;4.508;2022-11-03T11:14:20;100137.00;;;18.43;55.90
72465;BME280;60471;52.150;4.508;2022-11-03T11:16:51;100115.59;;;20.28;50.55
72465;BME280;60471;52.150;4.508;2022-11-03T11:19:19;100105.72;;;19.93;50.34
72465;BME280;60471;52.150;4.508;2022-11-03T11:30:07;100110.25;;;17.75;56.25
72465;BME280;60471;52.150;4.508;2022-11-03T11:32:57;100092.94;;;17.29;58.05
72465;BME280;60471;52.150;4.508;2022-11-03T11:37:53;100086.91;;;16.55;61.16
72465;BME280;60471;52.150;4.508;2022-11-03T11:51:45;100037.97;;;16.98;59.92
72465;BME280;60471;52.150;4.508;2022-11-03T11:54:16;100035.81;;;16.92;59.79
72465;BME280;60471;52.150;4.508;2022-11-03T11:56:46;100024.31;;;16.19;61.57
72465;BME280;60471;52.150;4.508;2022-11-03T11:59:20;100012.09;;;15.84;62.35
72465;BME280;60471;52.150;4.508;2022-11-03T12:01:50;100014.38;;;15.57;63.44
72465;BME280;60471;52.150;4.508;2022-11-03T12:04:21;99999.75;;;15.51;63.67
72465;BME280;60471;52.150;4.508;2022-11-03T12:06:52;100007.97;;;15.48;64.08
72465;BME280;60471;52.150;4.508;2022-11-03T12:09:23;100002.88;;;15.56;63.92
72465;BME280;60471;52.150;4.508;2022-11-03T12:11:56;99992.06;;;15.37;64.24
72465;BME280;60471;52.150;4.508;2022-11-03T12:17:37;99983.50;;;15.33;64.52
72465;BME280;60471;52.150;4.508;2022-11-03T12:19:48;99977.34;;;15.33;64.54
72465;BME280;60471;52.150;4.508;2022-11-03T12:24:52;99982.06;;;15.07;65.42
72465;BME280;60471;52.150;4.508;2022-11-03T12:29:52;99982.34;;;15.04;65.89
72465;BME280;60471;52.150;4.508;2022-11-03T12:32:24;100004.16;;;15.19;65.40
72465;BME280;60471;52.150;4.508;2022-11-03T12:34:51;99977.00;;;15.15;65.31
72465;BME280;60471;52.150;4.508;2022-11-03T12:37:21;99961.41;;;15.22;65.18
72465;BME280;60471;52.150;4.508;2022-11-03T12:39:48;99966.66;;;15.44;64.58
72465;BME280;60471;52.150;4.508;2022-11-03T12:42:14;99972.97;;;15.43;64.47
72465;BME280;60471;52.150;4.508;2022-11-03T12:44:40;99936.41;;;15.56;64.21
72465;BME280;60471;52.150;4.508;2022-11-03T12:47:06;99953.50;;;16.98;59.64
72465;BME280;60471;52.150;4.508;2022-11-03T12:49:33;99919.88;;;19.51;52.42
72465;BME280;60471;52.150;4.508;2022-11-03T12:52:00;99916.06;;;19.53;52.17
72465;BME280;60471;52.150;4.508;2022-11-03T12:54:31;99912.28;;;21.36;47.67
72465;BME280;60471;52.150;4.508;2022-11-03T12:56:58;99923.06;;;21.93;45.24
72465;BME280;60471;52.150;4.508;2022-11-03T12:59:24;99895.88;;;20.46;48.98
72465;BME280;60471;52.150;4.508;2022-11-03T13:01:51;99938.56;;;21.24;47.34
72465;BME280;60471;52.150;4.508;2022-11-03T13:04:17;99900.38;;;20.46;48.35
72465;BME280;60471;52.150;4.508;2022-11-03T13:06:43;99923.00;;;20.43;48.26
72465;BME280;60471;52.150;4.508;2022-11-03T13:09:09;99901.09;;;19.78;50.33
72465;BME280;60471;52.150;4.508;2022-11-03T13:11:35;99902.59;;;18.08;54.79
72465;BME280;60471;52.150;4.508;2022-11-03T13:14:20;99883.41;;;17.56;56.47
72465;BME280;60471;52.150;4.508;2022-11-03T13:16:46;99871.06;;;17.06;57.89
72465;BME280;60471;52.150;4.508;2022-11-03T13:19:13;99876.53;;;17.24;58.18
72465;BME280;60471;52.150;4.508;2022-11-03T13:21:39;99864.13;;;16.75;59.29
72465;BME280;60471;52.150;4.508;2022-11-03T13:24:05;99874.25;;;16.50;60.66
72465;BME280;60471;52.150;4.508;2022-11-03T13:26:31;99863.06;;;16.26;60.62
72465;BME280;60471;52.150;4.508;2022-11-03T13:28:58;99851.72;;;16.24;60.84
72465;BME280;60471;52.150;4.508;2022-11-03T13:31:24;99838.81;;;16.19;61.56
72465;BME280;60471;52.150;4.508;2022-11-03T13:33:50;99843.31;;;16.19;61.82
72465;BME280;60471;52.150;4.508;2022-11-03T13:36:17;99824.72;;;16.38;61.48
72465;BME280;60471;52.150;4.508;2022-11-03T13:38:43;99826.94;;;16.23;61.44
72465;BME280;60471;52.150;4.508;2022-11-03T13:41:09;99822.47;;;16.34;61.70
72465;BME280;60471;52.150;4.508;2022-11-03T13:43:35;99825.47;;;16.10;62.01
72465;BME280;60471;52.150;4.508;2022-11-03T13:46:02;99834.03;;;16.13;61.98
72465;BME280;60471;52.150;4.508;2022-11-03T13:48:29;99826.59;;;16.07;62.44
72465;BME280;60471;52.150;4.508;2022-11-03T13:50:56;99827.59;;;16.16;61.91
72465;BME280;60471;52.150;4.508;2022-11-03T13:53:22;99830.56;;;16.22;62.04
72465;BME280;60471;52.150;4.508;2022-11-03T13:55:49;99818.81;;;15.94;62.42
72465;BME280;60471;52.150;4.508;2022-11-03T13:58:15;99809.19;;;16.03;62.43
72465;BME280;60471;52.150;4.508;2022-11-03T14:00:41;99817.03;;;16.05;62.51
72465;BME280;60471;52.150;4.508;2022-11-03T14:03:08;99804.97;;;16.01;62.65
72465;BME280;60471;52.150;4.508;2022-11-03T14:05:34;99805.13;;;15.99;62.68
72465;BME280;60471;52.150;4.508;2022-11-03T14:08:00;99801.47;;;16.00;62.64
72465;BME280;60471;52.150;4.508;2022-11-03T14:10:26;99775.38;;;15.94;62.54
72465;BME280;60471;52.150;4.508;2022-11-03T14:12:52;99775.72;;;16.01;62.03
72465;BME280;60471;52.150;4.508;2022-11-03T14:15:19;99765.78;;;16.03;62.25
72465;BME280;60471;52.150;4.508;2022-11-03T14:17:45;99780.94;;;16.12;61.96
72465;BME280;60471;52.150;4.508;2022-11-03T14:20:11;99768.03;;;16.07;62.09
72465;BME280;60471;52.150;4.508;2022-11-03T14:22:38;99759.53;;;16.23;61.18
72465;BME280;60471;52.150;4.508;2022-11-03T14:25:06;99759.44;;;16.34;61.03
72465;BME280;60471;52.150;4.508;2022-11-03T14:27:32;99751.63;;;16.52;60.73
72465;BME280;60471;52.150;4.508;2022-11-03T14:29:58;99746.16;;;16.63;60.45
72465;BME280;60471;52.150;4.508;2022-11-03T14:32:25;99738.41;;;16.31;61.32
72465;BME280;60471;52.150;4.508;2022-11-03T14:34:51;99748.84;;;16.13;62.13
72465;BME280;60471;52.150;4.508;2022-11-03T14:37:17;99743.38;;;16.05;62.54